sensor_id;sensor_type;location;lat;lon;timestamp;pressure;altitude;pressure_sealevel;temperature;humidity
21824;BME280;11074;48.596;9.238;2023-02-12T00:02:18;100198.53;;;5.40;79.20
21824;BME280;11074;48.596;9.238;2023-02-12T00:04:44;100209.50;;;5.45;78.96
21824;BME280;11074;48.596;9.238;2023-02-12T00:07:11;100212.28;;;5.52;79.22
21824;BME280;11074;48.596;9.238;2023-02-12T00:09:37;100217.09;;;5.48;78.22
21824;BME280;11074;48.596;9.238;2023-02-12T00:12:03;100206.00;;;5.45;78.53
21824;BME280;11074;48.596;9.238;2023-02-12T00:14:29;100209.97;;;5.49;79.04
21824;BME280;11074;48.596;9.238;2023-02-12T00:16:55;100210.31;;;5.46;78.33
21824;BME280;11074;48.596;9.238;2023-02-12T00:19:20;100217.25;;;5.55;78.69
21824;BME280;11074;48.596;9.238;2023-02-12T00:21:46;100208.47;;;5.55;78.05
21824;BME280;11074;48.596;9.238;2023-02-12T00:24:12;100217.41;;;5.53;78.92
21824;BME280;11074;48.596;9.238;2023-02-12T00:26:37;100224.22;;;5.56;79.00
21824;BME280;11074;48.596;9.238;2023-02-12T00:29:03;100227.53;;;5.58;78.43
21824;BME280;11074;48.596;9.238;2023-02-12T00:31:30;100224.53;;;5.61;77.64
21824;BME280;11074;48.596;9.238;2023-02-12T00:33:58;100225.84;;;5.65;78.21
21824;BME280;11074;48.596;9.238;2023-02-12T00:36:27;100221.72;;;5.63;78.22
21824;BME280;11074;48.596;9.238;2023-02-12T00:38:54;100228.50;;;5.65;78.25
21824;BME280;11074;48.596;9.238;2023-02-12T00:41:21;100226.88;;;5.64;77.24
21824;BME280;11074;48.596;9.238;2023-02-12T00:43:48;100224.03;;;5.66;77.81
21824;BME280;11074;48.596;9.238;2023-02-12T00:46:15;100220.53;;;5.65;78.31
21824;BME280;11074;48.596;9.238;2023-02-12T00:48:40;100220.53;;;5.65;78.06
21824;BME280;11074;48.596;9.238;2023-02-12T00:51:07;100221.06;;;5.61;77.67
21824;BME280;11074;48.596;9.238;2023-02-12T00:53:33;100223.88;;;5.51;79.13
21824;BME280;11074;48.596;9.238;2023-02-12T00:55:59;100231.50;;;5.54;78.35
21824;BME280;11074;48.596;9.238;2023-02-12T00:58:26;100222.72;;;5.53;78.50
21824;BME280;11074;48.596;9.238;2023-02-12T01:00:52;100225.88;;;5.57;78.82
21824;BME280;11074;48.596;9.238;2023-02-12T01:03:18;100234.66;;;5.58;78.56
21824;BME280;11074;48.596;9.238;2023-02-12T01:05:44;100238.78;;;5.60;78.36
21824;BME280;11074;48.596;9.238;2023-02-12T01:08:15;100243.78;;;5.63;77.80
21824;BME280;11074;48.596;9.238;2023-02-12T01:10:42;100239.94;;;5.66;77.82
21824;BME280;11074;48.596;9.238;2023-02-12T01:13:12;100230.66;;;5.62;78.18
21824;BME280;11074;48.596;9.238;2023-02-12T01:15:40;100232.50;;;5.61;78.12
21824;BME280;11074;48.596;9.238;2023-02-12T01:18:06;100233.16;;;5.63;77.69
21824;BME280;11074;48.596;9.238;2023-02-12T01:20:32;100227.69;;;5.57;78.96
21824;BME280;11074;48.596;9.238;2023-02-12T01:22:57;100229.53;;;5.56;78.39
21824;BME280;11074;48.596;9.238;2023-02-12T01:25:23;100230.84;;;5.52;78.73
21824;BME280;11074;48.596;9.238;2023-02-12T01:27:52;100229.69;;;5.55;78.05
21824;BME280;11074;48.596;9.238;2023-02-12T01:30:18;100234.84;;;5.56;78.24
21824;BME280;11074;48.596;9.238;2023-02-12T01:32:47;100237.50;;;5.56;78.90
21824;BME280;11074;48.596;9.238;2023-02-12T01:35:13;100233.81;;;5.57;79.39
21824;BME280;11074;48.596;9.238;2023-02-12T01:37:38;100235.00;;;5.55;78.43
21824;BME280;11074;48.596;9.238;2023-02-12T01:40:06;100233.19;;;5.55;78.28
21824;BME280;11074;48.596;9.238;2023-02-12T01:42:32;100235.81;;;5.55;78.72
21824;BME280;11074;48.596;9.238;2023-02-12T01:47:41;100236.66;;;5.56;78.87
21824;BME280;11074;48.596;9.238;2023-02-12T01:50:14;100239.78;;;5.51;79.39
21824;BME280;11074;48.596;9.238;2023-02-12T01:52:47;100238.81;;;5.52;79.28
21824;BME280;11074;48.596;9.238;2023-02-12T01:55:15;100239.66;;;5.53;78.83
21824;BME280;11074;48.596;9.238;2023-02-12T01:57:44;100237.66;;;5.55;78.52
21824;BME280;11074;48.596;9.238;2023-02-12T02:00:17;100229.88;;;5.53;79.32
21824;BME280;11074;48.596;9.238;2023-02-12T02:02:48;100223.72;;;5.53;79.11
21824;BME280;11074;48.596;9.238;2023-02-12T02:07:53;100233.19;;;5.55;79.26
21824;BME280;11074;48.596;9.238;2023-02-12T02:10:19;100218.44;;;5.53;78.34
21824;BME280;11074;48.596;9.238;2023-02-12T02:12:45;100216.09;;;5.49;78.98
21824;BME280;11074;48.596;9.238;2023-02-12T02:15:29;100217.59;;;5.52;78.12
21824;BME280;11074;48.596;9.238;2023-02-12T02:18:19;100219.25;;;5.53;79.08
21824;BME280;11074;48.596;9.238;2023-02-12T02:24:16;100218.44;;;5.53;78.90
21824;BME280;11074;48.596;9.238;2023-02-12T02:30:34;100209.44;;;5.53;79.71
21824;BME280;11074;48.596;9.238;2023-02-12T02:36:52;100197.22;;;5.44;79.53
21824;BME280;11074;48.596;9.238;2023-02-12T02:39:48;100204.66;;;5.49;79.75
21824;BME280;11074;48.596;9.238;2023-02-12T02:42:27;100202.19;;;5.47;80.10
21824;BME280;11074;48.596;9.238;2023-02-12T02:45:27;100191.72;;;5.46;79.06
21824;BME280;11074;48.596;9.238;2023-02-12T02:48:03;100195.56;;;5.43;79.85
21824;BME280;11074;48.596;9.238;2023-02-12T02:50:34;100184.63;;;5.38;79.98
21824;BME280;11074;48.596;9.238;2023-02-12T02:53:07;100192.91;;;5.43;80.70
21824;BME280;11074;48.596;9.238;2023-02-12T02:55:44;100199.69;;;5.46;80.66
21824;BME280;11074;48.596;9.238;2023-02-12T02:58:26;100192.06;;;5.43;80.07
21824;BME280;11074;48.596;9.238;2023-02-12T03:01:02;100191.28;;;5.42;81.29
21824;BME280;11074;48.596;9.238;2023-02-12T03:03:41;100195.22;;;5.46;79.69
21824;BME280;11074;48.596;9.238;2023-02-12T03:06:29;100202.84;;;5.49;79.54
21824;BME280;11074;48.596;9.238;2023-02-12T03:09:11;100199.34;;;5.49;80.55
21824;BME280;11074;48.596;9.238;2023-02-12T03:11:38;100197.53;;;5.49;80.24
21824;BME280;11074;48.596;9.238;2023-02-12T03:14:25;100195.88;;;5.48;79.92
21824;BME280;11074;48.596;9.238;2023-02-12T03:17:01;100196.56;;;5.50;79.01
21824;BME280;11074;48.596;9.238;2023-02-12T03:19:44;100200.38;;;5.48;79.49
21824;BME280;11074;48.596;9.238;2023-02-12T03:22:16;100211.78;;;5.48;80.27
21824;BME280;11074;48.596;9.238;2023-02-12T03:24:50;100209.13;;;5.48;80.79
21824;BME280;11074;48.596;9.238;2023-02-12T03:27:30;100205.69;;;5.40;80.37
21824;BME280;11074;48.596;9.238;2023-02-12T03:29:57;100198.53;;;5.40;80.41
21824;BME280;11074;48.596;9.238;2023-02-12T03:32:45;100218.09;;;5.47;80.87
21824;BME280;11074;48.596;9.238;2023-02-12T03:35:41;100221.59;;;5.48;80.27
21824;BME280;11074;48.596;9.238;2023-02-12T03:38:37;100218.75;;;5.49;80.66
21824;BME280;11074;48.596;9.238;2023-02-12T03:41:13;100211.78;;;5.48;81.31
21824;BME280;11074;48.596;9.238;2023-02-12T03:43:49;100211.97;;;5.47;79.99
21824;BME280;11074;48.596;9.238;2023-02-12T03:46:43;100208.47;;;5.46;80.64
21824;BME280;11074;48.596;9.238;2023-02-12T03:49:25;100192.06;;;5.43;80.01
21824;BME280;11074;48.596;9.238;2023-02-12T03:51:52;100211.13;;;5.46;80.70
21824;BME280;11074;48.596;9.238;2023-02-12T03:54:20;100211.97;;;5.47;80.73
21824;BME280;11074;48.596;9.238;2023-02-12T03:57:11;100209.31;;;5.47;79.73
21824;BME280;11074;48.596;9.238;2023-02-12T03:59:39;100209.13;;;5.48;80.13
21824;BME280;11074;48.596;9.238;2023-02-12T04:02:06;100204.34;;;5.44;80.17
21824;BME280;11074;48.596;9.238;2023-02-12T04:04:33;100215.47;;;5.47;79.90
21824;BME280;11074;48.596;9.238;2023-02-12T04:06:59;100217.09;;;5.48;80.21
21824;BME280;11074;48.596;9.238;2023-02-12T04:09:27;100209.31;;;5.47;79.36
21824;BME280;11074;48.596;9.238;2023-02-12T04:12:38;100222.25;;;5.50;79.83
21824;BME280;11074;48.596;9.238;2023-02-12T04:26:36;100230.72;;;5.45;80.24
21824;BME280;11074;48.596;9.238;2023-02-12T04:32:05;100228.22;;;5.44;79.98
21824;BME280;11074;48.596;9.238;2023-02-12T04:34:49;100224.72;;;5.43;80.36
21824;BME280;11074;48.596;9.238;2023-02-12T04:37:23;100228.22;;;5.44;79.80
21824;BME280;11074;48.596;9.238;2023-02-12T04:39:51;100233.53;;;5.44;80.78
21824;BME280;11074;48.596;9.238;2023-02-12T04:42:18;100228.22;;;5.44;79.68
21824;BME280;11074;48.596;9.238;2023-02-12T04:44:44;100228.06;;;5.45;80.34
21824;BME280;11074;48.596;9.238;2023-02-12T04:47:15;100227.69;;;5.48;80.63
21824;BME280;11074;48.596;9.238;2023-02-12T04:49:41;100228.88;;;5.46;79.98
21824;BME280;11074;48.596;9.238;2023-02-12T04:52:08;100233.00;;;5.48;79.58
21824;BME280;11074;48.596;9.238;2023-02-12T04:54:34;100224.25;;;5.48;80.47
21824;BME280;11074;48.596;9.238;2023-02-12T04:57:00;100225.75;;;5.42;80.28
21824;BME280;11074;48.596;9.238;2023-02-12T04:59:26;100224.56;;;5.45;79.99
21824;BME280;11074;48.596;9.238;2023-02-12T05:01:51;100226.41;;;5.44;79.50
21824;BME280;11074;48.596;9.238;2023-02-12T05:04:18;100235.00;;;5.46;80.09
21824;BME280;11074;48.596;9.238;2023-02-12T05:06:45;100232.34;;;5.46;79.49
21824;BME280;11074;48.596;9.238;2023-02-12T05:09:17;100228.06;;;5.45;80.09
21824;BME280;11074;48.596;9.238;2023-02-12T05:11:44;100230.88;;;5.44;79.55
21824;BME280;11074;48.596;9.238;2023-02-12T05:14:10;100235.00;;;5.38;80.47
21824;BME280;11074;48.596;9.238;2023-02-12T05:16:36;100228.72;;;5.39;80.38
21824;BME280;11074;48.596;9.238;2023-02-12T05:19:02;100230.53;;;5.39;81.02
21824;BME280;11074;48.596;9.238;2023-02-12T05:21:28;100228.88;;;5.38;80.88
21824;BME280;11074;48.596;9.238;2023-02-12T05:23:54;100236.03;;;5.37;80.42
21824;BME280;11074;48.596;9.238;2023-02-12T05:26:21;100230.53;;;5.39;80.59
21824;BME280;11074;48.596;9.238;2023-02-12T05:28:47;100235.53;;;5.34;80.67
21824;BME280;11074;48.596;9.238;2023-02-12T05:31:17;100240.97;;;5.32;81.66
21824;BME280;11074;48.596;9.238;2023-02-12T05:33:46;100238.00;;;5.27;81.89
21824;BME280;11074;48.596;9.238;2023-02-12T05:36:15;100233.53;;;5.20;82.83
21824;BME280;11074;48.596;9.238;2023-02-12T05:38:41;100234.38;;;5.20;81.83
21824;BME280;11074;48.596;9.238;2023-02-12T05:41:17;100224.59;;;5.21;82.49
21824;BME280;11074;48.596;9.238;2023-02-12T05:43:43;100236.38;;;5.26;81.94
21824;BME280;11074;48.596;9.238;2023-02-12T05:46:10;100240.50;;;5.29;82.15
21824;BME280;11074;48.596;9.238;2023-02-12T05:48:37;100235.69;;;5.32;81.67
21824;BME280;11074;48.596;9.238;2023-02-12T05:51:17;100231.88;;;5.35;81.56
21824;BME280;11074;48.596;9.238;2023-02-12T05:53:44;100223.09;;;5.34;82.52
21824;BME280;11074;48.596;9.238;2023-02-12T05:56:23;100229.56;;;5.32;82.07
21824;BME280;11074;48.596;9.238;2023-02-12T05:58:58;100233.84;;;5.33;83.12
21824;BME280;11074;48.596;9.238;2023-02-12T06:01:40;100218.28;;;5.30;82.54
21824;BME280;11074;48.596;9.238;2023-02-12T06:04:14;100238.84;;;5.36;81.96
21824;BME280;11074;48.596;9.238;2023-02-12T06:06:40;100231.38;;;5.31;82.02
21824;BME280;11074;48.596;9.238;2023-02-12T06:09:16;100240.97;;;5.32;82.48
21824;BME280;11074;48.596;9.238;2023-02-12T06:11:42;100231.38;;;5.31;81.91
21824;BME280;11074;48.596;9.238;2023-02-12T06:14:16;100227.25;;;5.29;81.58
21824;BME280;11074;48.596;9.238;2023-02-12T06:16:47;100235.69;;;5.32;81.78
21824;BME280;11074;48.596;9.238;2023-02-12T06:19:14;100228.75;;;5.31;82.48
21824;BME280;11074;48.596;9.238;2023-02-12T06:21:40;100236.50;;;5.33;82.33
21824;BME280;11074;48.596;9.238;2023-02-12T06:24:06;100238.50;;;5.31;82.43
21824;BME280;11074;48.596;9.238;2023-02-12T06:26:32;100236.03;;;5.21;82.66
21824;BME280;11074;48.596;9.238;2023-02-12T06:28:58;100233.41;;;5.13;83.01
21824;BME280;11074;48.596;9.238;2023-02-12T06:31:31;100239.84;;;5.11;83.79
21824;BME280;11074;48.596;9.238;2023-02-12T06:34:02;100236.03;;;5.05;83.62
21824;BME280;11074;48.596;9.238;2023-02-12T06:36:28;100240.84;;;4.94;84.34
21824;BME280;11074;48.596;9.238;2023-02-12T06:38:54;100241.81;;;4.93;84.27
21824;BME280;11074;48.596;9.238;2023-02-12T06:41:21;100242.31;;;4.96;84.78
21824;BME280;11074;48.596;9.238;2023-02-12T06:43:48;100236.88;;;4.98;83.92
21824;BME280;11074;48.596;9.238;2023-02-12T06:46:15;100244.13;;;4.96;84.37
21824;BME280;11074;48.596;9.238;2023-02-12T06:48:41;100251.44;;;4.94;83.90
21824;BME280;11074;48.596;9.238;2023-02-12T06:51:14;100248.78;;;5.02;84.50
21824;BME280;11074;48.596;9.238;2023-02-12T06:53:40;100248.28;;;5.06;84.13
21824;BME280;11074;48.596;9.238;2023-02-12T06:56:08;100248.97;;;5.00;83.40
21824;BME280;11074;48.596;9.238;2023-02-12T06:58:37;100262.69;;;5.04;83.42
21824;BME280;11074;48.596;9.238;2023-02-12T07:03:39;100265.03;;;5.07;82.98
21824;BME280;11074;48.596;9.238;2023-02-12T07:06:05;100273.47;;;5.02;83.31
21824;BME280;11074;48.596;9.238;2023-02-12T07:08:31;100267.50;;;4.84;84.14
21824;BME280;11074;48.596;9.238;2023-02-12T07:10:57;100279.41;;;4.88;84.74
21824;BME280;11074;48.596;9.238;2023-02-12T07:13:22;100271.78;;;4.85;84.28
21824;BME280;11074;48.596;9.238;2023-02-12T07:15:48;100273.97;;;4.89;85.26
21824;BME280;11074;48.596;9.238;2023-02-12T07:18:14;100269.34;;;5.00;83.90
21824;BME280;11074;48.596;9.238;2023-02-12T07:20:39;100265.34;;;5.04;83.64
21824;BME280;11074;48.596;9.238;2023-02-12T07:23:05;100268.66;;;5.06;83.35
21824;BME280;11074;48.596;9.238;2023-02-12T07:25:31;100278.13;;;5.08;83.73
21824;BME280;11074;48.596;9.238;2023-02-12T07:27:56;100274.13;;;5.04;83.35
21824;BME280;11074;48.596;9.238;2023-02-12T07:30:22;100270.00;;;5.02;84.12
21824;BME280;11074;48.596;9.238;2023-02-12T07:32:48;100270.97;;;5.09;84.05
21824;BME280;11074;48.596;9.238;2023-02-12T07:35:13;100276.97;;;5.19;82.73
21824;BME280;11074;48.596;9.238;2023-02-12T07:37:39;100273.50;;;5.26;83.18
21824;BME280;11074;48.596;9.238;2023-02-12T07:40:06;100265.69;;;5.33;82.50
21824;BME280;11074;48.596;9.238;2023-02-12T07:42:32;100279.94;;;5.40;81.79
21824;BME280;11074;48.596;9.238;2023-02-12T07:44:57;100266.31;;;5.43;81.42
21824;BME280;11074;48.596;9.238;2023-02-12T07:47:23;100266.50;;;5.41;82.09
21824;BME280;11074;48.596;9.238;2023-02-12T07:49:49;100279.94;;;5.48;80.80
21824;BME280;11074;48.596;9.238;2023-02-12T07:52:14;100273.94;;;5.54;81.18
21824;BME280;11074;48.596;9.238;2023-02-12T07:54:40;100266.81;;;5.55;81.19
21824;BME280;11074;48.596;9.238;2023-02-12T07:57:06;100277.41;;;5.63;80.22
21824;BME280;11074;48.596;9.238;2023-02-12T07:59:31;100276.91;;;5.67;80.54
21824;BME280;11074;48.596;9.238;2023-02-12T08:01:58;100270.63;;;5.68;80.58
21824;BME280;11074;48.596;9.238;2023-02-12T08:04:25;100272.09;;;5.71;80.03
21824;BME280;11074;48.596;9.238;2023-02-12T08:06:53;100274.75;;;5.71;79.80
21824;BME280;11074;48.596;9.238;2023-02-12T08:09:26;100265.97;;;5.70;80.34
21824;BME280;11074;48.596;9.238;2023-02-12T08:11:52;100266.63;;;5.72;79.70
21824;BME280;11074;48.596;9.238;2023-02-12T08:14:20;100274.09;;;5.77;80.52
21824;BME280;11074;48.596;9.238;2023-02-12T08:16:48;100272.75;;;5.81;80.13
21824;BME280;11074;48.596;9.238;2023-02-12T08:19:15;100274.09;;;5.85;79.47
21824;BME280;11074;48.596;9.238;2023-02-12T08:21:41;100266.97;;;5.85;79.70
21824;BME280;11074;48.596;9.238;2023-02-12T08:24:09;100267.28;;;5.90;79.56
21824;BME280;11074;48.596;9.238;2023-02-12T08:26:37;100264.75;;;5.97;79.53
21824;BME280;11074;48.596;9.238;2023-02-12T08:29:11;100266.44;;;5.98;80.78
21824;BME280;11074;48.596;9.238;2023-02-12T08:31:47;100265.25;;;6.00;80.80
21824;BME280;11074;48.596;9.238;2023-02-12T08:34:25;100269.06;;;6.06;80.09
21824;BME280;11074;48.596;9.238;2023-02-12T08:36:53;100259.94;;;6.08;79.40
21824;BME280;11074;48.596;9.238;2023-02-12T08:39:20;100260.88;;;6.16;79.75
21824;BME280;11074;48.596;9.238;2023-02-12T08:41:46;100259.88;;;6.25;80.04
21824;BME280;11074;48.596;9.238;2023-02-12T08:44:13;100259.53;;;6.28;79.55
21824;BME280;11074;48.596;9.238;2023-02-12T08:46:44;100254.34;;;6.34;80.28
21824;BME280;11074;48.596;9.238;2023-02-12T08:49:23;100254.47;;;6.41;79.40
21824;BME280;11074;48.596;9.238;2023-02-12T08:51:52;100254.78;;;6.46;79.30
21824;BME280;11074;48.596;9.238;2023-02-12T08:54:22;100249.94;;;6.49;79.73
21824;BME280;11074;48.596;9.238;2023-02-12T08:56:49;100254.75;;;6.54;80.04
21824;BME280;11074;48.596;9.238;2023-02-12T08:59:16;100258.69;;;6.58;79.58
21824;BME280;11074;48.596;9.238;2023-02-12T09:01:42;100252.03;;;6.62;79.13
21824;BME280;11074;48.596;9.238;2023-02-12T09:04:18;100249.19;;;6.63;79.22
21824;BME280;11074;48.596;9.238;2023-02-12T09:06:46;100250.31;;;6.69;79.75
21824;BME280;11074;48.596;9.238;2023-02-12T09:09:13;100249.78;;;6.73;78.95
21824;BME280;11074;48.596;9.238;2023-02-12T09:11:39;100246.97;;;6.75;79.53
21824;BME280;11074;48.596;9.238;2023-02-12T09:14:09;100242.09;;;6.79;79.74
21824;BME280;11074;48.596;9.238;2023-02-12T09:16:37;100246.38;;;6.88;79.44
21824;BME280;11074;48.596;9.238;2023-02-12T09:19:05;100246.97;;;6.98;79.54
21824;BME280;11074;48.596;9.238;2023-02-12T09:21:32;100244.97;;;7.00;79.24
21824;BME280;11074;48.596;9.238;2023-02-12T09:23:59;100253.88;;;7.07;78.70
21824;BME280;11074;48.596;9.238;2023-02-12T09:26:25;100249.41;;;7.07;78.77
21824;BME280;11074;48.596;9.238;2023-02-12T09:28:51;100253.19;;;7.13;78.55
21824;BME280;11074;48.596;9.238;2023-02-12T09:31:24;100256.13;;;7.18;78.72
21824;BME280;11074;48.596;9.238;2023-02-12T09:34:05;100261.09;;;7.21;78.97
21824;BME280;11074;48.596;9.238;2023-02-12T09:36:32;100262.66;;;7.30;78.58
21824;BME280;11074;48.596;9.238;2023-02-12T09:38:58;100248.81;;;7.34;78.54
21824;BME280;11074;48.596;9.238;2023-02-12T09:41:49;100252.59;;;7.40;77.56
21824;BME280;11074;48.596;9.238;2023-02-12T09:44:32;100255.94;;;7.42;78.32
21824;BME280;11074;48.596;9.238;2023-02-12T09:47:08;100247.88;;;7.50;78.74
21824;BME280;11074;48.596;9.238;2023-02-12T09:52:26;100261.63;;;7.54;78.05
21824;BME280;11074;48.596;9.238;2023-02-12T09:54:53;100254.31;;;7.56;77.82
21824;BME280;11074;48.596;9.238;2023-02-12T09:57:40;100251.25;;;7.59;77.98
21824;BME280;11074;48.596;9.238;2023-02-12T10:00:24;100257.31;;;7.67;77.55
21824;BME280;11074;48.596;9.238;2023-02-12T10:03:00;100255.78;;;7.73;78.28
21824;BME280;11074;48.596;9.238;2023-02-12T10:05:35;100265.88;;;7.77;78.02
21824;BME280;11074;48.596;9.238;2023-02-12T10:11:56;100251.03;;;7.98;78.45
21824;BME280;11074;48.596;9.238;2023-02-12T10:17:46;100258.00;;;8.13;77.27
21824;BME280;11074;48.596;9.238;2023-02-12T10:20:47;100258.06;;;8.20;76.54
21824;BME280;11074;48.596;9.238;2023-02-12T10:25:58;100251.66;;;8.29;76.82
21824;BME280;11074;48.596;9.238;2023-02-12T10:28:34;100248.44;;;8.33;77.04
21824;BME280;11074;48.596;9.238;2023-02-12T10:31:31;100249.00;;;8.43;77.24
21824;BME280;11074;48.596;9.238;2023-02-12T10:33:58;100248.22;;;8.49;77.00
21824;BME280;11074;48.596;9.238;2023-02-12T10:39:19;100239.19;;;8.65;75.50
21824;BME280;11074;48.596;9.238;2023-02-12T10:42:07;100233.94;;;8.72;75.27
21824;BME280;11074;48.596;9.238;2023-02-12T10:44:34;100220.84;;;8.77;76.60
21824;BME280;11074;48.596;9.238;2023-02-12T10:47:00;100228.72;;;8.85;74.42
21824;BME280;11074;48.596;9.238;2023-02-12T10:49:30;100223.66;;;8.90;75.13
21824;BME280;11074;48.596;9.238;2023-02-12T10:52:18;100225.56;;;8.96;74.71
21824;BME280;11074;48.596;9.238;2023-02-12T10:54:49;100220.41;;;8.94;74.17
21824;BME280;11074;48.596;9.238;2023-02-12T10:57:21;100224.53;;;8.97;74.45
21824;BME280;11074;48.596;9.238;2023-02-12T10:59:51;100218.06;;;9.06;74.30
21824;BME280;11074;48.596;9.238;2023-02-12T11:02:30;100217.06;;;9.07;74.67
21824;BME280;11074;48.596;9.238;2023-02-12T11:04:59;100213.72;;;9.05;75.18
21824;BME280;11074;48.596;9.238;2023-02-12T11:07:26;100204.34;;;9.09;74.84
21824;BME280;11074;48.596;9.238;2023-02-12T11:09:55;100207.44;;;9.12;74.05
21824;BME280;11074;48.596;9.238;2023-02-12T11:12:40;100207.03;;;9.15;73.54
21824;BME280;11074;48.596;9.238;2023-02-12T11:15:45;100206.91;;;9.24;73.60
21824;BME280;11074;48.596;9.238;2023-02-12T11:18:24;100201.97;;;9.21;74.47
21824;BME280;11074;48.596;9.238;2023-02-12T11:21:00;100205.97;;;9.31;74.19
21824;BME280;11074;48.596;9.238;2023-02-12T11:23:38;100198.59;;;9.33;73.57
21824;BME280;11074;48.596;9.238;2023-02-12T11:26:28;100194.56;;;9.44;72.95
21824;BME280;11074;48.596;9.238;2023-02-12T11:29:01;100201.13;;;9.48;74.25
21824;BME280;11074;48.596;9.238;2023-02-12T11:31:30;100192.72;;;9.44;73.21
21824;BME280;11074;48.596;9.238;2023-02-12T11:34:17;100195.38;;;9.44;73.43
21824;BME280;11074;48.596;9.238;2023-02-12T11:36:52;100189.53;;;9.34;74.18
21824;BME280;11074;48.596;9.238;2023-02-12T11:39:35;100197.81;;;9.39;73.92
21824;BME280;11074;48.596;9.238;2023-02-12T11:42:23;100193.72;;;9.43;74.40
21824;BME280;11074;48.596;9.238;2023-02-12T11:44:54;100198.63;;;9.40;75.12
21824;BME280;11074;48.596;9.238;2023-02-12T11:47:31;100193.88;;;9.35;75.23
21824;BME280;11074;48.596;9.238;2023-02-12T11:50:06;100201.94;;;9.42;75.75
21824;BME280;11074;48.596;9.238;2023-02-12T11:52:36;100189.91;;;9.52;74.56
21824;BME280;11074;48.596;9.238;2023-02-12T11:55:19;100186.56;;;9.50;75.13
21824;BME280;11074;48.596;9.238;2023-02-12T11:57:50;100178.72;;;9.42;74.93
21824;BME280;11074;48.596;9.238;2023-02-12T12:00:38;100184.13;;;9.55;75.07
21824;BME280;11074;48.596;9.238;2023-02-12T12:03:29;100180.28;;;9.58;74.41
21824;BME280;11074;48.596;9.238;2023-02-12T12:08:59;100175.47;;;9.81;73.04
21824;BME280;11074;48.596;9.238;2023-02-12T12:14:25;100164.81;;;9.88;74.13
21824;BME280;11074;48.596;9.238;2023-02-12T12:17:04;100171.66;;;9.97;73.19
21824;BME280;11074;48.596;9.238;2023-02-12T12:20:10;100168.78;;;9.98;73.78
21824;BME280;11074;48.596;9.238;2023-02-12T12:23:02;100170.81;;;9.96;72.09
21824;BME280;11074;48.596;9.238;2023-02-12T12:25:45;100157.28;;;9.98;73.12
21824;BME280;11074;48.596;9.238;2023-02-12T12:28:32;100161.41;;;10.07;72.78
21824;BME280;11074;48.596;9.238;2023-02-12T12:31:26;100165.00;;;10.20;72.92
21824;BME280;11074;48.596;9.238;2023-02-12T12:34:17;100158.47;;;10.29;72.61
21824;BME280;11074;48.596;9.238;2023-02-12T12:43:07;100164.53;;;11.10;70.19
21824;BME280;11074;48.596;9.238;2023-02-12T12:48:54;100153.16;;;11.47;68.89
21824;BME280;11074;48.596;9.238;2023-02-12T12:54:44;100156.66;;;11.68;67.14
21824;BME280;11074;48.596;9.238;2023-02-12T12:57:45;100140.53;;;11.87;66.76
21824;BME280;11074;48.596;9.238;2023-02-12T13:03:41;100140.41;;;12.13;66.17
21824;BME280;11074;48.596;9.238;2023-02-12T13:06:45;100137.44;;;12.35;65.35
21824;BME280;11074;48.596;9.238;2023-02-12T13:09:37;100137.88;;;12.32;65.17
21824;BME280;11074;48.596;9.238;2023-02-12T13:12:35;100140.47;;;12.45;64.85
21824;BME280;11074;48.596;9.238;2023-02-12T13:15:32;100133.94;;;12.28;64.69
21824;BME280;11074;48.596;9.238;2023-02-12T13:18:33;100133.34;;;12.26;64.82
21824;BME280;11074;48.596;9.238;2023-02-12T13:24:04;100128.72;;;12.08;65.40
21824;BME280;11074;48.596;9.238;2023-02-12T13:26:52;100126.38;;;12.18;65.12
21824;BME280;11074;48.596;9.238;2023-02-12T13:29:26;100120.78;;;12.26;65.19
21824;BME280;11074;48.596;9.238;2023-02-12T13:34:34;100123.88;;;12.23;65.09
21824;BME280;11074;48.596;9.238;2023-02-12T13:37:03;100119.69;;;12.34;65.29
21824;BME280;11074;48.596;9.238;2023-02-12T13:39:39;100113.03;;;12.43;64.78
21824;BME280;11074;48.596;9.238;2023-02-12T13:48:40;100106.00;;;12.73;63.44
21824;BME280;11074;48.596;9.238;2023-02-12T13:51:43;100113.03;;;12.74;63.72
21824;BME280;11074;48.596;9.238;2023-02-12T13:57:07;100103.28;;;12.80;63.50
21824;BME280;11074;48.596;9.238;2023-02-12T14:05:42;100097.91;;;13.04;62.09
21824;BME280;11074;48.596;9.238;2023-02-12T14:08:46;100091.56;;;13.42;61.83
21824;BME280;11074;48.596;9.238;2023-02-12T14:11:16;100089.91;;;13.95;59.57
21824;BME280;11074;48.596;9.238;2023-02-12T14:14:03;100086.34;;;14.61;56.61
21824;BME280;11074;48.596;9.238;2023-02-12T14:27:57;100068.88;;;16.80;50.75
21824;BME280;11074;48.596;9.238;2023-02-12T14:30:39;100073.31;;;16.86;49.78
21824;BME280;11074;48.596;9.238;2023-02-12T14:35:44;100064.19;;;17.64;48.01
21824;BME280;11074;48.596;9.238;2023-02-12T14:40:42;100052.28;;;17.48;47.60
21824;BME280;11074;48.596;9.238;2023-02-12T14:43:34;100050.00;;;17.57;47.75
21824;BME280;11074;48.596;9.238;2023-02-12T14:49:02;100049.97;;;17.74;47.41
21824;BME280;11074;48.596;9.238;2023-02-12T14:51:56;100047.88;;;17.59;46.93
21824;BME280;11074;48.596;9.238;2023-02-12T14:54:33;100050.53;;;17.37;47.31
21824;BME280;11074;48.596;9.238;2023-02-12T14:57:09;100046.97;;;17.15;48.16
21824;BME280;11074;48.596;9.238;2023-02-12T14:59:42;100044.41;;;16.87;48.77
21824;BME280;11074;48.596;9.238;2023-02-12T15:02:23;100042.66;;;16.64;49.68
21824;BME280;11074;48.596;9.238;2023-02-12T15:04:50;100043.34;;;16.55;50.12
21824;BME280;11074;48.596;9.238;2023-02-12T15:07:35;100049.81;;;16.42;49.82
21824;BME280;11074;48.596;9.238;2023-02-12T15:10:14;100046.03;;;16.26;50.09
21824;BME280;11074;48.596;9.238;2023-02-12T15:12:53;100036.91;;;15.99;51.33
21824;BME280;11074;48.596;9.238;2023-02-12T15:15:50;100049.03;;;15.85;51.42
21824;BME280;11074;48.596;9.238;2023-02-12T15:18:28;100043.00;;;15.66;52.01
21824;BME280;11074;48.596;9.238;2023-02-12T15:23:57;100042.94;;;15.03;54.03